createdAt,value
2022-08-20T00:03:57.629Z,19.80
2022-08-20T00:09:07.341Z,15.40
2022-08-20T00:14:13.072Z,16.40
2022-08-20T00:19:18.575Z,15.20
2022-08-20T00:24:24.576Z,18.50
2022-08-20T00:29:30.827Z,25.20
2022-08-20T00:34:36.350Z,15.20
2022-08-20T00:39:42.035Z,15.60
2022-08-20T00:44:48.760Z,13.20
2022-08-20T00:49:55.477Z,16.50
2022-08-20T00:55:03.302Z,19.40
2022-08-20T01:00:11.770Z,17.00
2022-08-20T01:05:17.521Z,16.70
2022-08-20T01:10:28.315Z,22.50
2022-08-20T01:15:33.835Z,12.90
2022-08-20T01:20:41.188Z,15.00
2022-08-20T01:25:49.959Z,12.70
2022-08-20T01:30:55.961Z,20.10
2022-08-20T01:36:01.935Z,23.10
2022-08-20T01:41:12.635Z,18.80
2022-08-20T01:46:19.270Z,19.10
2022-08-20T01:51:26.848Z,25.30
2022-08-20T01:56:33.177Z,17.80
2022-08-20T02:01:46.318Z,17.50
2022-08-20T02:06:57.161Z,20.50
2022-08-20T02:12:04.334Z,27.80
2022-08-20T02:17:10.282Z,24.80
2022-08-20T02:22:19.538Z,15.20
2022-08-20T02:27:25.308Z,20.10
2022-08-20T02:32:34.330Z,17.90
2022-08-20T02:37:40.698Z,20.10
2022-08-20T02:42:46.113Z,19.10
2022-08-20T02:47:52.172Z,15.90
2022-08-20T02:52:57.728Z,19.90
2022-08-20T02:58:03.113Z,17.30
2022-08-20T03:03:10.533Z,17.80
2022-08-20T03:08:17.083Z,19.50
2022-08-20T03:13:24.279Z,19.90
2022-08-20T03:18:31.236Z,24.00
2022-08-20T03:23:38.219Z,30.20
2022-08-20T03:28:46.008Z,28.20
2022-08-20T03:33:54.768Z,28.90
2022-08-20T03:39:01.614Z,25.00
2022-08-20T03:44:07.187Z,26.70
2022-08-20T03:49:12.926Z,27.80
2022-08-20T03:54:18.487Z,27.50
2022-08-20T03:59:23.855Z,30.10
2022-08-20T04:04:29.350Z,25.60
2022-08-20T04:09:34.946Z,30.70
2022-08-20T04:14:40.716Z,25.70
2022-08-20T04:19:47.848Z,28.80
2022-08-20T04:24:53.437Z,32.20
2022-08-20T04:29:58.876Z,38.40
2022-08-20T04:35:04.763Z,41.00
2022-08-20T04:40:32.273Z,35.80
2022-08-20T04:45:40.387Z,34.40
2022-08-20T04:50:47.744Z,32.10
2022-08-20T04:55:54.498Z,26.00
2022-08-20T05:01:01.700Z,22.90
2022-08-20T05:06:08.288Z,21.70
2022-08-20T05:11:32.829Z,16.60
2022-08-20T05:16:41.720Z,21.60
2022-08-20T05:21:47.127Z,20.60
2022-08-20T05:26:55.432Z,17.40
2022-08-20T05:32:01.913Z,18.90
2022-08-20T05:37:07.737Z,23.70
2022-08-20T05:42:13.290Z,33.50
2022-08-20T05:47:19.307Z,34.30
2022-08-20T05:52:28.439Z,45.00
2022-08-20T05:57:34.630Z,43.70
2022-08-20T06:02:58.204Z,47.70
2022-08-20T06:08:07.213Z,46.80
2022-08-20T06:13:14.154Z,54.10
2022-08-20T06:18:28.458Z,52.50
2022-08-20T06:23:56.647Z,50.20
2022-08-20T06:28:59.822Z,48.00
2022-08-20T06:34:05.305Z,47.40
2022-08-20T06:39:10.601Z,48.40
2022-08-20T06:44:17.607Z,48.20
2022-08-20T06:49:23.941Z,47.70
2022-08-20T06:54:29.584Z,58.10
2022-08-20T06:59:35.092Z,62.90
2022-08-20T07:04:40.668Z,60.20
2022-08-20T07:09:47.035Z,51.60
2022-08-20T07:14:52.820Z,48.10
2022-08-20T07:19:58.282Z,54.10
2022-08-20T07:25:04.504Z,57.40
2022-08-20T07:30:29.935Z,45.90
2022-08-20T07:35:35.977Z,50.00
2022-08-20T07:40:43.368Z,44.90
2022-08-20T07:45:49.739Z,46.30
2022-08-20T07:50:57.881Z,45.30
2022-08-20T07:56:04.827Z,44.90
2022-08-20T08:01:12.044Z,45.00
2022-08-20T08:06:28.368Z,44.60
2022-08-20T08:11:38.005Z,41.00
2022-08-20T08:16:45.789Z,43.80
2022-08-20T08:21:51.608Z,41.80
2022-08-20T08:26:57.084Z,39.80
2022-08-20T08:32:05.111Z,40.30
2022-08-20T08:37:10.904Z,42.80
2022-08-20T08:42:22.311Z,36.20
2022-08-20T08:47:29.673Z,45.10
2022-08-20T08:52:36.809Z,44.90
2022-08-20T08:57:42.313Z,41.90
2022-08-20T09:02:57.474Z,36.40
2022-08-20T09:08:06.861Z,37.30
2022-08-20T09:13:12.694Z,40.50
2022-08-20T09:18:18.123Z,40.40
2022-08-20T09:23:24.390Z,34.90
2022-08-20T09:28:32.277Z,34.00
2022-08-20T09:33:37.967Z,35.10
2022-08-20T09:38:43.434Z,30.50
2022-08-20T09:43:49.045Z,38.10
2022-08-20T09:48:54.654Z,33.70
2022-08-20T09:54:02.389Z,34.80
2022-08-20T09:59:08.005Z,34.30
2022-08-20T10:04:13.455Z,31.20
2022-08-20T10:09:19.357Z,32.40
2022-08-20T10:14:24.800Z,30.20
2022-08-20T10:19:31.518Z,31.30
2022-08-20T10:24:36.922Z,33.30
2022-08-20T10:29:46.318Z,30.20
2022-08-20T10:34:52.276Z,42.20
2022-08-20T10:39:57.722Z,31.70
2022-08-20T10:45:03.036Z,32.50
2022-08-20T10:50:10.348Z,33.90
2022-08-20T10:55:15.656Z,31.40
2022-08-20T11:00:20.967Z,29.10
2022-08-20T11:05:26.294Z,30.60
2022-08-20T11:10:34.181Z,26.80
2022-08-20T11:15:41.221Z,27.30
2022-08-20T11:20:46.719Z,26.80
2022-08-20T11:25:52.215Z,28.50
2022-08-20T11:30:57.648Z,23.80
2022-08-20T11:36:02.976Z,27.10
2022-08-20T11:41:08.363Z,28.50
2022-08-20T11:46:13.688Z,26.90
2022-08-20T11:51:19.077Z,29.60
2022-08-20T11:56:24.369Z,29.70
2022-08-20T12:01:32.552Z,26.00
2022-08-20T12:06:40.065Z,22.50
2022-08-20T12:11:46.238Z,24.70
2022-08-20T12:16:51.541Z,21.80
2022-08-20T12:21:57.492Z,21.80
2022-08-20T12:27:11.190Z,23.10
2022-08-20T12:32:19.569Z,18.50
2022-08-20T12:37:27.025Z,17.20
2022-08-20T12:42:32.354Z,18.00
2022-08-20T12:47:39.087Z,16.90
2022-08-20T12:52:44.485Z,16.60
2022-08-20T12:57:51.336Z,18.10
2022-08-20T13:02:57.369Z,16.40
2022-08-20T13:08:04.064Z,14.90
2022-08-20T13:13:09.385Z,16.90
2022-08-20T13:18:14.753Z,16.00
2022-08-20T13:23:20.033Z,15.90
2022-08-20T13:28:27.800Z,16.90
2022-08-20T13:33:33.155Z,17.40
2022-08-20T13:38:38.441Z,18.00
2022-08-20T13:43:43.758Z,14.20
2022-08-20T13:48:49.140Z,13.30
2022-08-20T13:53:54.604Z,13.30
2022-08-20T13:59:00.016Z,14.40
2022-08-20T14:04:05.758Z,16.10
2022-08-20T14:09:11.073Z,17.10
2022-08-20T14:14:16.335Z,17.30
2022-08-20T14:19:21.645Z,15.10
2022-08-20T14:24:27.274Z,22.60
2022-08-20T14:29:36.643Z,18.70
2022-08-20T14:34:42.305Z,17.00
2022-08-20T14:39:48.410Z,19.50
2022-08-20T14:44:53.973Z,27.30
2022-08-20T14:50:02.367Z,21.40
2022-08-20T14:55:12.220Z,17.70
2022-08-20T15:00:19.000Z,18.40
2022-08-20T15:05:24.675Z,19.40
2022-08-20T15:10:31.664Z,19.40
2022-08-20T15:15:37.203Z,17.50
2022-08-20T15:20:42.720Z,23.80
2022-08-20T15:25:48.465Z,22.30
2022-08-20T15:30:54.655Z,27.90
2022-08-20T15:36:00.779Z,22.90
2022-08-20T15:41:07.784Z,26.70
2022-08-20T15:46:13.421Z,32.50
2022-08-20T15:51:33.393Z,26.50
2022-08-20T15:56:59.848Z,17.40
2022-08-20T16:02:12.449Z,16.70
2022-08-20T16:07:19.812Z,15.60
2022-08-20T16:12:30.851Z,12.60
2022-08-20T16:17:38.947Z,13.00
2022-08-20T16:22:45.833Z,11.20
2022-08-20T16:27:54.626Z,9.70
2022-08-20T16:33:04.527Z,10.30
2022-08-20T16:38:12.443Z,7.80
2022-08-20T16:43:22.725Z,12.20
2022-08-20T16:48:31.850Z,5.80
2022-08-20T16:53:37.543Z,6.90
2022-08-20T16:58:45.341Z,9.20
2022-08-20T17:03:51.364Z,7.30
2022-08-20T17:08:56.733Z,6.60
2022-08-20T17:14:10.701Z,7.90
2022-08-20T17:19:19.242Z,9.50
2022-08-20T17:24:27.978Z,9.30
2022-08-20T17:29:34.531Z,9.40
2022-08-20T17:34:48.405Z,10.20
2022-08-20T17:39:55.259Z,11.60
2022-08-20T17:45:05.416Z,12.40
2022-08-20T17:50:13.460Z,11.60
2022-08-20T17:55:19.176Z,12.10
2022-08-20T18:00:26.823Z,9.50
2022-08-20T18:05:35.119Z,12.70
2022-08-20T18:10:44.050Z,12.20
2022-08-20T18:15:51.610Z,14.90
2022-08-20T18:21:16.757Z,14.10
2022-08-20T18:26:25.612Z,12.90
2022-08-20T18:31:34.149Z,10.20
2022-08-20T18:36:40.983Z,10.50
2022-08-20T18:41:57.952Z,9.70
2022-08-20T18:47:04.332Z,11.40
2022-08-20T18:52:13.723Z,11.60
2022-08-20T18:57:21.721Z,14.10
2022-08-20T19:02:29.587Z,13.80
2022-08-20T19:07:48.227Z,18.30
2022-08-20T19:13:15.459Z,17.60
2022-08-20T19:18:25.288Z,16.10
2022-08-20T19:23:34.430Z,18.00
2022-08-20T19:28:44.919Z,21.50
2022-08-20T19:33:51.573Z,18.00
2022-08-20T19:38:58.500Z,24.00
2022-08-20T19:44:04.886Z,20.20
2022-08-20T19:49:19.259Z,22.40
2022-08-20T19:54:26.126Z,24.40
2022-08-20T19:59:31.628Z,24.10
2022-08-20T20:04:41.113Z,22.10
2022-08-20T20:10:00.551Z,27.00
2022-08-20T20:15:06.974Z,24.00
2022-08-20T20:20:20.982Z,22.30
2022-08-20T20:25:38.879Z,24.70
2022-08-20T20:30:44.952Z,29.60
2022-08-20T20:35:50.785Z,30.20
2022-08-20T20:40:57.719Z,33.80
2022-08-20T20:46:06.457Z,24.40
2022-08-20T20:51:16.515Z,24.80
2022-08-20T20:56:30.751Z,26.10
2022-08-20T21:01:48.949Z,23.00
2022-08-20T21:06:57.350Z,24.30
2022-08-20T21:12:02.785Z,25.60
2022-08-20T21:17:09.510Z,27.80
2022-08-20T21:22:15.044Z,27.20
2022-08-20T21:27:21.846Z,25.00
2022-08-20T21:32:27.245Z,20.20
2022-08-20T21:37:33.146Z,16.50
2022-08-20T21:42:39.353Z,16.60
2022-08-20T21:47:44.677Z,16.80
2022-08-20T21:52:59.554Z,15.00
2022-08-20T21:58:06.557Z,14.20
2022-08-20T22:03:13.372Z,14.90
2022-08-20T22:08:20.001Z,12.40
2022-08-20T22:13:28.448Z,13.60
2022-08-20T22:18:34.378Z,15.90
2022-08-20T22:23:40.681Z,12.60
2022-08-20T22:28:50.984Z,14.10
2022-08-20T22:33:57.458Z,10.10
2022-08-20T22:39:02.708Z,11.00
2022-08-20T22:44:08.106Z,13.20
2022-08-20T22:49:14.627Z,11.50
2022-08-20T22:54:21.471Z,13.40
2022-08-20T22:59:27.071Z,11.10
2022-08-20T23:04:34.070Z,11.90
2022-08-20T23:09:39.610Z,14.10
2022-08-20T23:14:44.941Z,14.10
2022-08-20T23:19:50.998Z,16.80
2022-08-20T23:25:00.391Z,17.60
2022-08-20T23:30:06.962Z,14.50
2022-08-20T23:35:13.040Z,18.90
2022-08-20T23:40:20.097Z,14.10
2022-08-20T23:45:34.287Z,16.50
2022-08-20T23:50:41.124Z,14.30
2022-08-20T23:55:46.436Z,21.80
